Latest Coastal Weather Observations for Willis Island

IDQ60701

Issued at 4:25 am EST Wednesday 1 October 2014 (issued every 10 minutes, with the page automatically refreshed every 10 minutes)

About coastal observations | Map of coastal stations | Coastal observations for QLD | Marine services | Other Formats
Station Details ID: 200283 Name: WILLIS ISLAND Lat: -16.29 Lon: 149.97 Height: 9.29 m
Data from the previous 72 hours. | See also: Recent months at Willis Island
Date/Time
EST
Temp

°C
Wind Pressure Rain
since 9am
mm
Weather Cloud Vis
km
Sea
Height
m
Swell
Dir
 
Speed
knots
Gust
knots
hPa Trend Height
m
Period
s
Dir
01/04:00am 23.7 SE 13 16 1014.7 - 0.0 - - - - - - -
01/03:30am 23.7 SE 15 18 1014.7 - 0.0 - - - - - - -
01/03:00am 23.7 SE 16 19 1014.7 - 0.0 - - - - - - -
01/02:30am 23.5 SE 16 19 1014.8 - 0.0 - - - - - - -
01/02:00am 23.5 SE 17 20 1015.1 - 0.0 - - - - - - -
01/01:30am 23.5 SE 17 21 1015.3 - 0.0 - - - - - - -
01/01:00am 23.6 SE 13 16 1015.5 - 0.0 - - - - - - -
01/12:30am 23.6 SE 15 17 1016.1 - 0.0 - - - - - - -
01/12:00am 23.7 ESE 17 19 1016.4 - 0.0 - - - - - - -
 
Date/Time
EST
Temp

°C
Wind Pressure Rain
since 9am
mm
Weather Cloud Vis
km
Sea
Height
m
Swell
Dir
 
Speed
knots
Gust
knots
hPa Trend Height
m
Period
s
Dir
30/11:30pm 23.6 ESE 15 17 1016.5 - 0.0 - - - - - - -
30/11:00pm 23.4 ESE 15 18 1016.9 - 0.0 - - - - - - -
30/10:30pm 22.8 E 14 19 1017.1 - 0.0 - - - - - - -
30/10:00pm 23.8 ESE 14 16 1017.1 - 0.0 - - - - - - -
30/09:30pm 23.6 SE 12 15 1017.0 - 0.0 - - - - - - -
30/09:00pm 23.5 ESE 16 19 1017.0 F 0.0 Distant precip. Partly cloudy 30 2 - - -
30/08:30pm 23.5 ESE 15 18 1016.9 - 0.0 - - - - - - -
30/08:00pm 23.5 ESE 16 20 1016.8 - 0.0 - - - - - - -
30/07:30pm 23.6 ESE 16 19 1016.5 - 0.0 - - - - - - -
30/07:00pm 23.6 ESE 16 19 1016.5 - 0.0 - - - - - - -
30/06:30pm 23.7 ESE 17 20 1016.1 - 0.0 - - - - - - -
30/06:00pm 23.9 ESE 18 21 1015.8 R 0.0 Fine Partly cloudy 30 2 1.0 8 SE
30/05:30pm 23.9 ESE 18 22 1015.3 - 0.0 - - - - - - -
30/05:00pm 24.2 SE 18 21 1015.0 - 0.0 - - - - - - -
30/04:30pm 24.1 ESE 19 22 1014.8 - 0.0 - - - - - - -
30/04:00pm 24.6 SE 16 20 1014.4 - 0.0 - - - - - - -
30/03:30pm 25.1 SE 15 19 1014.2 - 0.0 - - - - - - -
30/03:00pm 25.0 SE 17 19 1014.2 R 0.0 Distant precip. Partly cloudy 30 2 1.0 8 SE
30/02:30pm 24.5 SE 16 19 1014.4 - 0.0 - - - - - - -
30/02:00pm 26.0 SE 16 19 1014.7 - 0.0 - - - - - - -
30/01:30pm 26.1 SE 17 19 1014.9 - 0.0 - - - - - - -
30/01:00pm 25.6 SE 18 21 1015.2 - 0.0 - - - - - - -
30/12:30pm 26.2 SE 18 21 1015.6 - 0.0 - - - - - - -
30/12:00pm 26.6 ESE 17 20 1015.9 F 0.0 Distant precip. Mostly cloudy 30 2 1.2 9 SE
30/11:30am 26.1 E 16 19 1016.5 - 0.0 - - - - - - -
30/11:00am 26.1 ESE 17 20 1016.9 - 0.0 - - - - - - -
30/10:30am 26.2 ESE 17 21 1017.4 - 0.0 - - - - - - -
30/10:00am 26.1 SE 13 18 1017.5 - 0.0 - - - - - - -
30/09:30am 24.3 SE 11 14 1018.0 - 0.0 - - - - - - -
30/09:00am 24.6 SE 16 19 1018.0 R 0.0 Fine Mostly cloudy 30 1 1.2 9 SE
30/08:30am 23.5 ESE 14 16 1017.9 - 0.0 - - - - - - -
30/08:00am 23.3 ESE 18 21 1017.9 - 0.0 - - - - - - -
30/07:30am 22.2 ESE 24 29 1017.7 - 0.0 - - - - - - -
30/07:00am 22.3 ESE 27 30 1017.2 - 0.0 - - - - - - -
30/06:30am 23.1 SE 23 27 1016.8 - 0.0 - - - - - - -
30/06:00am 23.6 ESE 19 22 1016.2 F 0.0 Distant precip. Partly cloudy 30 1 1.2 9 SE
30/05:30am 23.6 ESE 18 21 1015.9 - 0.0 - - - - - - -
30/05:00am 23.5 ESE 20 24 1015.4 - 0.0 - - - - - - -
30/04:56am 23.6 ESE 21 24 1015.4 - 0.0 - - - - - - -
30/04:30am 22.7 SE 12 14 1015.4 - 0.0 - - - - - - -
30/04:00am 21.2 E 5 7 1015.4 - 0.0 - - - - - - -
30/03:30am 20.8 E 8 11 1015.4 - 0.0 - - - - - - -
30/03:00am 21.7 SSE 11 14 1015.5 - 0.0 - - - - - - -
30/02:30am 21.5 ENE 8 10 1015.7 - 0.0 - - - - - - -
30/02:00am 21.2 ENE 11 13 1016.0 - 0.0 - - - - - - -
30/01:30am 21.4 E 17 21 1016.2 - 0.0 - - - - - - -
30/01:00am 22.1 E 24 28 1016.3 - 0.0 - - - - - - -
30/12:49am 23.3 ESE 16 27 1016.3 - 0.0 - - - - - - -
30/12:30am 23.7 SE 12 15 1016.4 - 0.0 - - - - - - -
30/12:00am 23.5 SE 13 15 1016.7 - 0.0 - - - - - - -
 
Date/Time
EST
Temp

°C
Wind Pressure Rain
since 9am
mm
Weather Cloud Vis
km
Sea
Height
m
Swell
Dir
 
Speed
knots
Gust
knots
hPa Trend Height
m
Period
s
Dir
29/11:30pm 23.5 ESE 14 17 1016.8 - 0.0 - - - - - - -
29/11:00pm 23.6 SE 17 20 1016.9 - 0.0 - - - - - - -
29/10:30pm 23.7 SE 19 23 1017.1 - 0.0 - - - - - - -
29/10:00pm 23.5 SE 18 22 1017.1 - 0.0 - - - - - - -
29/09:30pm 23.5 SE 19 23 1017.0 - 0.0 - - - - - - -
29/09:00pm 23.5 SE 20 24 1016.9 R 0.0 Distant precip. Partly cloudy 25 2 - - -
29/08:30pm 23.5 SE 21 24 1016.5 - 0.0 - - - - - - -
29/08:00pm 23.6 SE 21 24 1016.2 - 0.0 - - - - - - -
29/07:30pm 23.7 SE 19 22 1015.8 - 0.0 - - - - - - -
29/07:00pm 23.7 SE 20 24 1015.6 - 0.0 - - - - - - -
29/06:30pm 23.7 SE 20 24 1015.1 - 0.0 - - - - - - -
29/06:00pm 24.0 SE 19 23 1014.9 F 0.0 Fine Mostly clear 30 2 1.0 8 SE
29/05:30pm 24.1 ESE 18 21 1014.6 - 0.0 - - - - - - -
29/05:00pm 24.4 SE 20 24 1014.4 - 0.0 - - - - - - -
29/04:30pm 24.7 SE 19 22 1014.2 - 0.0 - - - - - - -
29/04:00pm 25.0 ESE 20 23 1014.3 - 0.0 - - - - - - -
29/03:30pm 25.2 ESE 20 23 1014.2 - 0.0 - - - - - - -
29/03:00pm 25.3 ESE 20 23 1014.3 R 0.0 Fine Mostly clear 25 3 1.0 7 SE
29/02:30pm 25.5 ESE 21 24 1014.4 - 0.0 - - - - - - -
29/02:00pm 25.9 ESE 19 22 1014.6 - 0.0 - - - - - - -
29/01:30pm 26.1 ESE 20 23 1014.8 - 0.0 - - - - - - -
29/01:00pm 25.9 ESE 20 23 1014.9 - 0.0 - - - - - - -
29/12:30pm 26.2 ESE 20 23 1015.5 - 0.0 - - - - - - -
29/12:00pm 26.1 ESE 20 23 1015.8 R 0.0 Distant precip. Mostly clear 30 3 1.5 8 E
29/11:30am 25.8 E 21 25 1016.3 - 0.0 - - - - - - -
29/11:00am 26.2 E 22 25 1016.6 - 0.0 - - - - - - -
29/10:30am 25.6 E 22 27 1016.7 - 0.0 - - - - - - -
29/10:00am 25.4 ESE 21 26 1016.9 - 0.0 - - - - - - -
29/09:30am 24.9 ESE 22 26 1016.9 - 0.0 - - - - - - -
29/09:00am 24.3 ESE 23 28 1016.8 S 0.0 Showers Partly cloudy 25 2 1.2 8 SE
29/08:30am 24.1 ESE 24 29 1016.8 - 0.0 - - - - - - -
29/08:00am 24.8 ESE 24 29 1016.6 - 0.0 - - - - - - -
29/07:30am 24.2 ESE 24 29 1016.2 - 0.0 - - - - - - -
29/07:00am 24.2 ESE 24 28 1015.8 - 0.0 - - - - - - -
29/06:30am 23.7 ESE 22 27 1015.5 - 0.0 - - - - - - -
29/06:00am 23.3 SE 23 28 1015.1 F 0.0 Distant precip. Partly cloudy 25 2 1.2 8 SE
29/05:30am 23.4 ESE 25 28 1014.6 - 0.0 - - - - - - -
29/05:00am 23.5 SE 25 29 1014.4 - 0.0 - - - - - - -
29/04:30am 23.4 SE 24 28 1014.2 - 0.0 - - - - - - -
29/04:00am 23.3 SE 23 28 1014.1 - 0.0 - - - - - - -
29/03:30am 23.7 ESE 25 30 1014.1 - 0.0 - - - - - - -
29/03:00am 23.5 SE 22 26 1014.4 - 0.0 - - - - - - -
29/02:30am 23.5 SE 23 27 1014.7 - 0.0 - - - - - - -
29/02:00am 23.5 ESE 24 27 1015.0 - 0.0 - - - - - - -
29/01:30am 23.7 ESE 23 27 1015.3 - 0.0 - - - - - - -
29/01:00am 23.6 ESE 22 27 1015.7 - 0.0 - - - - - - -
29/12:30am 23.9 ESE 22 27 1016.0 - 0.0 - - - - - - -
29/12:00am 23.9 ESE 22 26 1016.2 - 0.0 - - - - - - -
 
Date/Time
EST
Temp

°C
Wind Pressure Rain
since 9am
mm
Weather Cloud Vis
km
Sea
Height
m
Swell
Dir
 
Speed
knots
Gust
knots
hPa Trend Height
m
Period
s
Dir
28/11:30pm 23.9 ESE 21 25 1016.5 - 0.0 - - - - - - -
28/11:00pm 24.0 SE 23 25 1016.6 - 0.0 - - - - - - -
28/10:30pm 24.0 ESE 21 26 1016.7 - 0.0 - - - - - - -
28/10:00pm 24.1 ESE 22 25 1016.7 - 0.0 - - - - - - -
28/09:30pm 24.1 ESE 22 26 1016.5 - 0.0 - - - - - - -
28/09:00pm 24.2 ESE 21 26 1016.3 F 0.0 Fine Mostly clear 30 2 - - -
28/08:30pm 24.2 ESE 23 26 1016.1 - 0.0 - - - - - - -
28/08:00pm 24.3 ESE 23 27 1015.8 - 0.0 - - - - - - -
28/07:30pm 24.3 ESE 23 25 1015.7 - 0.0 - - - - - - -
28/07:00pm 24.2 SE 22 26 1015.5 - 0.0 - - - - - - -
28/06:30pm 24.3 SE 21 24 1015.2 - 0.0 - - - - - - -
28/06:00pm 24.3 SE 23 28 1014.8 F 0.0 Fine Mostly clear 30 2 1.2 8 SE
28/05:30pm 24.5 SE 21 24 1014.5 - 0.0 - - - - - - -
28/05:00pm 24.6 SE 20 23 1014.3 - 0.0 - - - - - - -
28/04:30pm 24.9 SE 20 23 1014.0 - 0.0 - - - - - - -
28/04:00pm 25.5 SE 19 22 1014.1 - 0.0 - - - - - - -
28/03:30pm 25.8 SE 19 24 1014.1 - 0.0 - - - - - - -
28/03:00pm 25.8 SE 20 23 1014.2 F 0.0 Fine Mostly clear 30 2 1.2 8 SE
28/02:30pm 26.3 SE 18 21 1014.4 - 0.0 - - - - - - -
28/02:00pm 26.5 SE 19 22 1014.8 - 0.0 - - - - - - -
28/01:30pm 26.6 SE 19 22 1015.0 - 0.0 - - - - - - -
28/01:00pm 27.0 SE 19 21 1015.3 - 0.0 - - - - - - -
28/12:30pm 26.7 SE 18 21 1015.7 - 0.0 - - - - - - -
28/12:00pm 26.8 SE 19 22 1016.2 - 0.0 - - - - - - -
28/11:30am 27.4 SE 19 24 1016.6 - 0.0 - - - - - - -
28/11:00am 26.7 SE 20 24 1017.2 - 0.0 - - - - - - -
28/10:30am 26.5 SE 19 24 1017.3 - 0.0 - - - - - - -
28/10:00am 26.3 SE 21 24 1017.3 - 0.0 - - - - - - -
28/09:30am 26.5 SE 20 24 1017.4 - 0.0 - - - - - - -
28/09:00am 25.9 SE 21 25 1017.4 S 0.0 Fine Mostly clear 30 3 0.8 7 SE
28/08:30am 25.9 SE 20 24 1017.3 - 0.0 - - - - - - -
28/08:00am 25.3 SE 20 24 1017.2 - 0.0 - - - - - - -
28/07:30am 25.0 SE 19 23 1016.8 - 0.0 - - - - - - -
28/07:00am 24.8 SE 19 23 1016.6 - 0.0 - - - - - - -
28/06:30am 24.4 SE 19 23 1016.1 - 0.0 - - - - - - -
28/06:00am 24.0 SE 18 22 1015.7 R 0.0 Fine Mostly clear 30 1 0.8 7 SE
28/05:30am 23.9 SE 19 22 1015.3 - 0.0 - - - - - - -
28/05:00am 23.8 SE 19 23 1014.9 - 0.0 - - - - - - -
28/04:30am 23.8 SE 19 22 1014.7 - 0.0 - - - - - - -

Other Formats:

Comma delimited format used in spreadsheet applications
http://www.bom.gov.au/fwo/IDQ60701/IDQ60701.94299.axf

JavaScript Object Notation format (JSON) in row-major order
http://www.bom.gov.au/fwo/IDQ60701/IDQ60701.94299.json